sensor_id;sensor_type;location;lat;lon;timestamp;temperature;humidity
18898;DHT22;9581;49.484;8.556;2023-07-30T00:01:34;19.60;99.90
18898;DHT22;9581;49.484;8.556;2023-07-30T00:04:01;19.50;99.90
18898;DHT22;9581;49.484;8.556;2023-07-30T00:06:28;19.40;99.90
18898;DHT22;9581;49.484;8.556;2023-07-30T00:08:55;19.50;99.90
18898;DHT22;9581;49.484;8.556;2023-07-30T00:11:21;19.70;99.90
18898;DHT22;9581;49.484;8.556;2023-07-30T00:13:49;19.50;99.90
18898;DHT22;9581;49.484;8.556;2023-07-30T00:16:16;19.50;99.90
18898;DHT22;9581;49.484;8.556;2023-07-30T00:18:43;19.50;99.90
18898;DHT22;9581;49.484;8.556;2023-07-30T00:21:10;19.50;99.90
18898;DHT22;9581;49.484;8.556;2023-07-30T00:23:36;19.60;99.90
18898;DHT22;9581;49.484;8.556;2023-07-30T00:26:03;19.70;99.90
18898;DHT22;9581;49.484;8.556;2023-07-30T00:28:30;19.80;99.90
18898;DHT22;9581;49.484;8.556;2023-07-30T00:30:58;20.00;99.90
18898;DHT22;9581;49.484;8.556;2023-07-30T00:33:25;19.90;99.90
18898;DHT22;9581;49.484;8.556;2023-07-30T00:35:52;19.90;99.90
18898;DHT22;9581;49.484;8.556;2023-07-30T00:38:19;19.90;99.90
18898;DHT22;9581;49.484;8.556;2023-07-30T00:40:46;19.90;99.90
18898;DHT22;9581;49.484;8.556;2023-07-30T00:43:13;20.00;99.90
18898;DHT22;9581;49.484;8.556;2023-07-30T00:45:42;19.90;99.90
18898;DHT22;9581;49.484;8.556;2023-07-30T00:48:11;19.90;99.90
18898;DHT22;9581;49.484;8.556;2023-07-30T00:50:38;19.80;99.90
18898;DHT22;9581;49.484;8.556;2023-07-30T00:53:06;19.80;99.90
18898;DHT22;9581;49.484;8.556;2023-07-30T00:55:34;20.00;99.90
18898;DHT22;9581;49.484;8.556;2023-07-30T00:58:01;20.00;99.90
18898;DHT22;9581;49.484;8.556;2023-07-30T01:00:28;19.80;99.90
18898;DHT22;9581;49.484;8.556;2023-07-30T01:02:55;19.70;99.90
18898;DHT22;9581;49.484;8.556;2023-07-30T01:05:23;19.60;99.90
18898;DHT22;9581;49.484;8.556;2023-07-30T01:07:50;19.60;99.90
18898;DHT22;9581;49.484;8.556;2023-07-30T01:10:17;19.50;99.90
18898;DHT22;9581;49.484;8.556;2023-07-30T01:12:45;19.50;99.90
18898;DHT22;9581;49.484;8.556;2023-07-30T01:15:13;19.60;99.90
18898;DHT22;9581;49.484;8.556;2023-07-30T01:17:39;19.70;99.90
18898;DHT22;9581;49.484;8.556;2023-07-30T01:20:07;19.60;99.90
18898;DHT22;9581;49.484;8.556;2023-07-30T01:22:35;19.40;99.90
18898;DHT22;9581;49.484;8.556;2023-07-30T01:25:03;19.40;99.90
18898;DHT22;9581;49.484;8.556;2023-07-30T01:27:33;19.40;99.90
18898;DHT22;9581;49.484;8.556;2023-07-30T01:30:05;19.30;99.90
18898;DHT22;9581;49.484;8.556;2023-07-30T01:32:33;19.50;99.90
18898;DHT22;9581;49.484;8.556;2023-07-30T01:35:02;19.60;99.90
18898;DHT22;9581;49.484;8.556;2023-07-30T01:37:30;19.60;99.90
18898;DHT22;9581;49.484;8.556;2023-07-30T01:39:58;19.50;99.90
18898;DHT22;9581;49.484;8.556;2023-07-30T01:42:28;19.40;99.90
18898;DHT22;9581;49.484;8.556;2023-07-30T01:44:55;19.60;99.90
18898;DHT22;9581;49.484;8.556;2023-07-30T01:47:22;19.70;99.90
18898;DHT22;9581;49.484;8.556;2023-07-30T01:49:49;19.60;99.90
18898;DHT22;9581;49.484;8.556;2023-07-30T01:52:16;19.50;99.90
18898;DHT22;9581;49.484;8.556;2023-07-30T01:54:42;19.40;99.90
18898;DHT22;9581;49.484;8.556;2023-07-30T01:57:11;19.30;99.90
18898;DHT22;9581;49.484;8.556;2023-07-30T01:59:38;19.30;99.90
18898;DHT22;9581;49.484;8.556;2023-07-30T02:02:05;19.30;99.90
18898;DHT22;9581;49.484;8.556;2023-07-30T02:04:32;19.30;99.90
18898;DHT22;9581;49.484;8.556;2023-07-30T02:06:59;19.40;99.90
18898;DHT22;9581;49.484;8.556;2023-07-30T02:09:26;19.60;99.90
18898;DHT22;9581;49.484;8.556;2023-07-30T02:11:52;19.80;99.90
18898;DHT22;9581;49.484;8.556;2023-07-30T02:14:21;19.90;99.90
18898;DHT22;9581;49.484;8.556;2023-07-30T02:16:47;20.00;99.90
18898;DHT22;9581;49.484;8.556;2023-07-30T02:19:14;19.90;99.90
18898;DHT22;9581;49.484;8.556;2023-07-30T02:21:41;19.60;99.90
18898;DHT22;9581;49.484;8.556;2023-07-30T02:24:08;19.50;99.90
18898;DHT22;9581;49.484;8.556;2023-07-30T02:26:37;19.40;99.90
18898;DHT22;9581;49.484;8.556;2023-07-30T02:29:04;19.30;99.90
18898;DHT22;9581;49.484;8.556;2023-07-30T02:31:32;19.30;99.90
18898;DHT22;9581;49.484;8.556;2023-07-30T02:33:59;19.50;99.90
18898;DHT22;9581;49.484;8.556;2023-07-30T02:36:25;19.70;99.90
18898;DHT22;9581;49.484;8.556;2023-07-30T02:38:52;19.60;99.90
18898;DHT22;9581;49.484;8.556;2023-07-30T02:41:19;19.50;99.90
18898;DHT22;9581;49.484;8.556;2023-07-30T02:43:46;19.40;99.90
18898;DHT22;9581;49.484;8.556;2023-07-30T02:46:13;19.30;99.90
18898;DHT22;9581;49.484;8.556;2023-07-30T02:48:41;19.30;99.90
18898;DHT22;9581;49.484;8.556;2023-07-30T02:51:08;19.40;99.90
18898;DHT22;9581;49.484;8.556;2023-07-30T02:53:35;19.40;99.90
18898;DHT22;9581;49.484;8.556;2023-07-30T02:56:02;19.30;99.90
18898;DHT22;9581;49.484;8.556;2023-07-30T02:58:28;19.30;99.90
18898;DHT22;9581;49.484;8.556;2023-07-30T03:00:55;19.30;99.90
18898;DHT22;9581;49.484;8.556;2023-07-30T03:03:22;19.40;99.90
18898;DHT22;9581;49.484;8.556;2023-07-30T03:05:50;19.40;99.90
18898;DHT22;9581;49.484;8.556;2023-07-30T03:08:17;19.30;99.90
18898;DHT22;9581;49.484;8.556;2023-07-30T03:10:44;19.30;99.90
18898;DHT22;9581;49.484;8.556;2023-07-30T03:13:11;19.20;99.90
18898;DHT22;9581;49.484;8.556;2023-07-30T03:15:37;19.20;99.90
18898;DHT22;9581;49.484;8.556;2023-07-30T03:18:04;19.20;99.90
18898;DHT22;9581;49.484;8.556;2023-07-30T03:20:31;19.10;99.90
18898;DHT22;9581;49.484;8.556;2023-07-30T03:22:59;19.10;99.90
18898;DHT22;9581;49.484;8.556;2023-07-30T03:25:26;19.10;99.90
18898;DHT22;9581;49.484;8.556;2023-07-30T03:27:52;19.10;99.90
18898;DHT22;9581;49.484;8.556;2023-07-30T03:30:19;19.10;99.90
18898;DHT22;9581;49.484;8.556;2023-07-30T03:32:46;19.00;99.90
18898;DHT22;9581;49.484;8.556;2023-07-30T03:35:13;19.00;99.90
18898;DHT22;9581;49.484;8.556;2023-07-30T03:37:39;19.10;99.90
18898;DHT22;9581;49.484;8.556;2023-07-30T03:40:09;19.20;99.90
18898;DHT22;9581;49.484;8.556;2023-07-30T03:42:35;19.10;99.90
18898;DHT22;9581;49.484;8.556;2023-07-30T03:45:03;19.30;99.90
18898;DHT22;9581;49.484;8.556;2023-07-30T03:47:30;19.20;99.90
18898;DHT22;9581;49.484;8.556;2023-07-30T03:49:56;19.10;99.90
18898;DHT22;9581;49.484;8.556;2023-07-30T03:52:23;19.20;99.90
18898;DHT22;9581;49.484;8.556;2023-07-30T03:54:50;19.20;99.90
18898;DHT22;9581;49.484;8.556;2023-07-30T03:57:18;19.40;99.90
18898;DHT22;9581;49.484;8.556;2023-07-30T03:59:45;19.30;99.90
18898;DHT22;9581;49.484;8.556;2023-07-30T04:02:12;19.20;99.90
18898;DHT22;9581;49.484;8.556;2023-07-30T04:04:41;19.10;99.90
18898;DHT22;9581;49.484;8.556;2023-07-30T04:07:09;19.00;99.90
18898;DHT22;9581;49.484;8.556;2023-07-30T04:09:35;19.00;99.90
18898;DHT22;9581;49.484;8.556;2023-07-30T04:12:03;19.10;99.90
18898;DHT22;9581;49.484;8.556;2023-07-30T04:14:31;19.00;99.90
18898;DHT22;9581;49.484;8.556;2023-07-30T04:16:58;19.10;99.90
18898;DHT22;9581;49.484;8.556;2023-07-30T04:19:24;19.00;99.90
18898;DHT22;9581;49.484;8.556;2023-07-30T04:21:51;19.10;99.90
18898;DHT22;9581;49.484;8.556;2023-07-30T04:24:18;19.20;99.90
18898;DHT22;9581;49.484;8.556;2023-07-30T04:26:44;19.00;99.90
18898;DHT22;9581;49.484;8.556;2023-07-30T04:29:11;19.00;99.90
18898;DHT22;9581;49.484;8.556;2023-07-30T04:31:40;19.00;99.90
18898;DHT22;9581;49.484;8.556;2023-07-30T04:34:07;19.10;99.90
18898;DHT22;9581;49.484;8.556;2023-07-30T04:36:34;19.00;99.90
18898;DHT22;9581;49.484;8.556;2023-07-30T04:39:01;19.00;99.90
18898;DHT22;9581;49.484;8.556;2023-07-30T04:41:28;19.00;99.90
18898;DHT22;9581;49.484;8.556;2023-07-30T04:43:54;18.90;99.90
18898;DHT22;9581;49.484;8.556;2023-07-30T04:46:21;19.00;99.90
18898;DHT22;9581;49.484;8.556;2023-07-30T04:48:49;19.00;99.90
18898;DHT22;9581;49.484;8.556;2023-07-30T04:51:16;19.00;99.90
18898;DHT22;9581;49.484;8.556;2023-07-30T04:53:43;18.90;99.90
18898;DHT22;9581;49.484;8.556;2023-07-30T04:56:09;19.00;99.90
18898;DHT22;9581;49.484;8.556;2023-07-30T04:58:36;19.10;99.90
18898;DHT22;9581;49.484;8.556;2023-07-30T05:01:03;19.20;99.90
18898;DHT22;9581;49.484;8.556;2023-07-30T05:03:29;19.10;99.90
18898;DHT22;9581;49.484;8.556;2023-07-30T05:05:58;19.20;99.90
18898;DHT22;9581;49.484;8.556;2023-07-30T05:08:24;19.20;99.90
18898;DHT22;9581;49.484;8.556;2023-07-30T05:10:51;19.20;99.90
18898;DHT22;9581;49.484;8.556;2023-07-30T05:13:18;19.40;99.90
18898;DHT22;9581;49.484;8.556;2023-07-30T05:15:45;19.30;99.90
18898;DHT22;9581;49.484;8.556;2023-07-30T05:18:11;19.20;99.90
18898;DHT22;9581;49.484;8.556;2023-07-30T05:20:39;19.30;99.90
18898;DHT22;9581;49.484;8.556;2023-07-30T05:23:07;19.20;99.90
18898;DHT22;9581;49.484;8.556;2023-07-30T05:25:33;19.10;99.90
18898;DHT22;9581;49.484;8.556;2023-07-30T05:28:01;19.00;99.90
18898;DHT22;9581;49.484;8.556;2023-07-30T05:30:27;19.00;99.90
18898;DHT22;9581;49.484;8.556;2023-07-30T05:32:54;19.00;99.90
18898;DHT22;9581;49.484;8.556;2023-07-30T05:35:21;19.00;99.90
18898;DHT22;9581;49.484;8.556;2023-07-30T05:37:48;19.00;99.90
18898;DHT22;9581;49.484;8.556;2023-07-30T05:40:16;19.20;99.90
18898;DHT22;9581;49.484;8.556;2023-07-30T05:42:43;19.10;99.90
18898;DHT22;9581;49.484;8.556;2023-07-30T05:45:12;19.20;99.90
18898;DHT22;9581;49.484;8.556;2023-07-30T05:47:38;19.10;99.90
18898;DHT22;9581;49.484;8.556;2023-07-30T05:50:06;19.40;99.90
18898;DHT22;9581;49.484;8.556;2023-07-30T05:52:34;19.40;99.90
18898;DHT22;9581;49.484;8.556;2023-07-30T05:55:01;19.30;99.90
18898;DHT22;9581;49.484;8.556;2023-07-30T05:57:29;19.30;99.90
18898;DHT22;9581;49.484;8.556;2023-07-30T05:59:56;19.40;99.90
18898;DHT22;9581;49.484;8.556;2023-07-30T06:02:23;19.50;99.90
18898;DHT22;9581;49.484;8.556;2023-07-30T06:04:50;19.60;99.90
18898;DHT22;9581;49.484;8.556;2023-07-30T06:07:17;19.60;99.90
18898;DHT22;9581;49.484;8.556;2023-07-30T06:09:43;19.70;99.90
18898;DHT22;9581;49.484;8.556;2023-07-30T06:12:11;19.70;99.90
18898;DHT22;9581;49.484;8.556;2023-07-30T06:14:39;19.80;99.90
18898;DHT22;9581;49.484;8.556;2023-07-30T06:17:05;19.90;99.90
18898;DHT22;9581;49.484;8.556;2023-07-30T06:19:32;20.00;99.90
18898;DHT22;9581;49.484;8.556;2023-07-30T06:21:59;20.10;99.90
18898;DHT22;9581;49.484;8.556;2023-07-30T06:24:26;20.10;99.90
18898;DHT22;9581;49.484;8.556;2023-07-30T06:26:52;20.00;99.90
18898;DHT22;9581;49.484;8.556;2023-07-30T06:29:19;20.10;99.90
18898;DHT22;9581;49.484;8.556;2023-07-30T06:31:47;20.20;99.90
18898;DHT22;9581;49.484;8.556;2023-07-30T06:34:14;20.10;99.90
18898;DHT22;9581;49.484;8.556;2023-07-30T06:36:41;20.20;99.90
18898;DHT22;9581;49.484;8.556;2023-07-30T06:39:08;20.30;99.90
18898;DHT22;9581;49.484;8.556;2023-07-30T06:41:35;20.30;99.90
18898;DHT22;9581;49.484;8.556;2023-07-30T06:44:02;20.30;99.90
18898;DHT22;9581;49.484;8.556;2023-07-30T06:46:28;20.30;99.90
18898;DHT22;9581;49.484;8.556;2023-07-30T06:48:55;20.30;99.90
18898;DHT22;9581;49.484;8.556;2023-07-30T06:51:24;20.40;99.90
18898;DHT22;9581;49.484;8.556;2023-07-30T06:53:51;20.50;99.90
18898;DHT22;9581;49.484;8.556;2023-07-30T06:56:18;20.40;99.90
18898;DHT22;9581;49.484;8.556;2023-07-30T06:58:45;20.30;99.90
18898;DHT22;9581;49.484;8.556;2023-07-30T07:01:12;20.70;99.90
18898;DHT22;9581;49.484;8.556;2023-07-30T07:03:39;20.60;99.90
18898;DHT22;9581;49.484;8.556;2023-07-30T07:06:07;20.60;99.90
18898;DHT22;9581;49.484;8.556;2023-07-30T07:08:34;20.60;99.90
18898;DHT22;9581;49.484;8.556;2023-07-30T07:11:01;20.80;99.90
18898;DHT22;9581;49.484;8.556;2023-07-30T07:13:28;20.70;99.90
18898;DHT22;9581;49.484;8.556;2023-07-30T07:15:55;20.70;99.90
18898;DHT22;9581;49.484;8.556;2023-07-30T07:18:21;20.60;99.90
18898;DHT22;9581;49.484;8.556;2023-07-30T07:20:48;20.80;99.90
18898;DHT22;9581;49.484;8.556;2023-07-30T07:23:16;21.00;99.90
18898;DHT22;9581;49.484;8.556;2023-07-30T07:25:44;21.00;99.90
18898;DHT22;9581;49.484;8.556;2023-07-30T07:28:10;21.00;99.90
18898;DHT22;9581;49.484;8.556;2023-07-30T07:30:37;20.90;99.90
18898;DHT22;9581;49.484;8.556;2023-07-30T07:33:04;20.70;99.90
18898;DHT22;9581;49.484;8.556;2023-07-30T07:35:32;20.50;99.90
18898;DHT22;9581;49.484;8.556;2023-07-30T07:37:58;20.30;99.90
18898;DHT22;9581;49.484;8.556;2023-07-30T07:40:27;20.40;99.90
18898;DHT22;9581;49.484;8.556;2023-07-30T07:42:55;20.50;99.90
18898;DHT22;9581;49.484;8.556;2023-07-30T07:45:22;20.50;99.90
18898;DHT22;9581;49.484;8.556;2023-07-30T07:47:49;20.70;99.90
18898;DHT22;9581;49.484;8.556;2023-07-30T07:50:16;20.70;99.90
18898;DHT22;9581;49.484;8.556;2023-07-30T07:52:42;21.00;99.90
18898;DHT22;9581;49.484;8.556;2023-07-30T07:55:10;21.30;99.90
18898;DHT22;9581;49.484;8.556;2023-07-30T07:57:38;21.50;99.90
18898;DHT22;9581;49.484;8.556;2023-07-30T08:00:06;21.80;99.90
18898;DHT22;9581;49.484;8.556;2023-07-30T08:02:33;22.10;99.90
18898;DHT22;9581;49.484;8.556;2023-07-30T08:04:59;22.10;99.90
18898;DHT22;9581;49.484;8.556;2023-07-30T08:07:26;22.70;99.90
18898;DHT22;9581;49.484;8.556;2023-07-30T08:09:53;23.40;99.90
18898;DHT22;9581;49.484;8.556;2023-07-30T08:12:20;23.40;99.90
18898;DHT22;9581;49.484;8.556;2023-07-30T08:14:48;23.30;99.90
18898;DHT22;9581;49.484;8.556;2023-07-30T08:17:16;23.30;99.90
18898;DHT22;9581;49.484;8.556;2023-07-30T08:19:42;24.10;99.90
18898;DHT22;9581;49.484;8.556;2023-07-30T08:22:09;25.30;99.90
18898;DHT22;9581;49.484;8.556;2023-07-30T08:24:36;28.20;99.90
18898;DHT22;9581;49.484;8.556;2023-07-30T08:27:03;27.60;99.90
18898;DHT22;9581;49.484;8.556;2023-07-30T08:29:30;25.40;99.90
18898;DHT22;9581;49.484;8.556;2023-07-30T08:31:58;24.40;99.90
18898;DHT22;9581;49.484;8.556;2023-07-30T08:34:24;23.60;99.90
18898;DHT22;9581;49.484;8.556;2023-07-30T08:36:51;24.60;99.90
18898;DHT22;9581;49.484;8.556;2023-07-30T08:39:18;24.30;99.90
18898;DHT22;9581;49.484;8.556;2023-07-30T08:41:45;24.40;99.90
18898;DHT22;9581;49.484;8.556;2023-07-30T08:44:12;23.60;99.90
18898;DHT22;9581;49.484;8.556;2023-07-30T08:46:39;23.60;99.90
18898;DHT22;9581;49.484;8.556;2023-07-30T08:49:07;23.00;99.90
18898;DHT22;9581;49.484;8.556;2023-07-30T08:51:36;22.90;99.90
18898;DHT22;9581;49.484;8.556;2023-07-30T08:54:04;23.50;99.90
18898;DHT22;9581;49.484;8.556;2023-07-30T08:56:32;24.50;99.90
18898;DHT22;9581;49.484;8.556;2023-07-30T08:59:00;25.60;99.90
18898;DHT22;9581;49.484;8.556;2023-07-30T09:01:30;25.40;99.90
18898;DHT22;9581;49.484;8.556;2023-07-30T09:03:58;25.50;99.90
18898;DHT22;9581;49.484;8.556;2023-07-30T09:06:27;25.70;99.90
18898;DHT22;9581;49.484;8.556;2023-07-30T09:08:53;25.70;99.90
18898;DHT22;9581;49.484;8.556;2023-07-30T09:11:20;25.30;99.90
18898;DHT22;9581;49.484;8.556;2023-07-30T09:13:53;25.50;99.90
18898;DHT22;9581;49.484;8.556;2023-07-30T09:16:24;25.60;99.90
18898;DHT22;9581;49.484;8.556;2023-07-30T09:18:51;25.50;99.90
18898;DHT22;9581;49.484;8.556;2023-07-30T09:21:19;25.50;99.90
18898;DHT22;9581;49.484;8.556;2023-07-30T09:23:48;25.50;99.90
18898;DHT22;9581;49.484;8.556;2023-07-30T09:26:15;25.80;99.90
18898;DHT22;9581;49.484;8.556;2023-07-30T09:28:42;25.60;99.90
18898;DHT22;9581;49.484;8.556;2023-07-30T09:31:09;25.50;99.90
18898;DHT22;9581;49.484;8.556;2023-07-30T09:33:40;25.00;99.90
18898;DHT22;9581;49.484;8.556;2023-07-30T09:36:08;25.10;99.90
18898;DHT22;9581;49.484;8.556;2023-07-30T09:38:38;25.10;99.90
18898;DHT22;9581;49.484;8.556;2023-07-30T09:41:07;25.50;99.90
18898;DHT22;9581;49.484;8.556;2023-07-30T09:43:35;25.10;99.90
18898;DHT22;9581;49.484;8.556;2023-07-30T09:46:03;25.40;99.90
18898;DHT22;9581;49.484;8.556;2023-07-30T09:48:31;25.80;99.90
18898;DHT22;9581;49.484;8.556;2023-07-30T09:50:59;26.20;99.90
18898;DHT22;9581;49.484;8.556;2023-07-30T09:53:29;26.00;99.90
18898;DHT22;9581;49.484;8.556;2023-07-30T09:55:59;25.40;99.90
18898;DHT22;9581;49.484;8.556;2023-07-30T09:58:28;25.40;99.90
18898;DHT22;9581;49.484;8.556;2023-07-30T10:00:56;25.30;99.90
18898;DHT22;9581;49.484;8.556;2023-07-30T10:03:24;25.30;99.90
18898;DHT22;9581;49.484;8.556;2023-07-30T10:05:51;24.80;99.90
18898;DHT22;9581;49.484;8.556;2023-07-30T10:08:24;24.30;99.90
18898;DHT22;9581;49.484;8.556;2023-07-30T10:10:53;24.10;99.90
18898;DHT22;9581;49.484;8.556;2023-07-30T10:13:21;24.20;99.90
18898;DHT22;9581;49.484;8.556;2023-07-30T10:15:50;24.20;99.90
18898;DHT22;9581;49.484;8.556;2023-07-30T10:18:18;24.10;99.90
18898;DHT22;9581;49.484;8.556;2023-07-30T10:20:52;24.40;99.90
18898;DHT22;9581;49.484;8.556;2023-07-30T10:23:20;25.30;99.90
18898;DHT22;9581;49.484;8.556;2023-07-30T10:25:48;25.90;99.90
18898;DHT22;9581;49.484;8.556;2023-07-30T10:28:27;26.80;99.90
18898;DHT22;9581;49.484;8.556;2023-07-30T10:31:00;27.40;99.90
18898;DHT22;9581;49.484;8.556;2023-07-30T10:33:50;27.60;99.90
18898;DHT22;9581;49.484;8.556;2023-07-30T10:36:30;27.90;99.90
18898;DHT22;9581;49.484;8.556;2023-07-30T10:38:57;27.60;99.90
18898;DHT22;9581;49.484;8.556;2023-07-30T10:41:27;28.60;99.90
18898;DHT22;9581;49.484;8.556;2023-07-30T10:43:54;29.10;99.90
18898;DHT22;9581;49.484;8.556;2023-07-30T10:46:22;29.20;99.90
18898;DHT22;9581;49.484;8.556;2023-07-30T10:48:50;29.20;99.90
18898;DHT22;9581;49.484;8.556;2023-07-30T10:51:18;30.50;99.90
18898;DHT22;9581;49.484;8.556;2023-07-30T10:53:46;29.30;99.90
18898;DHT22;9581;49.484;8.556;2023-07-30T10:56:16;29.20;99.90
18898;DHT22;9581;49.484;8.556;2023-07-30T10:58:43;30.30;99.90
18898;DHT22;9581;49.484;8.556;2023-07-30T11:01:15;30.20;99.90
18898;DHT22;9581;49.484;8.556;2023-07-30T11:03:48;31.60;99.90
18898;DHT22;9581;49.484;8.556;2023-07-30T11:06:21;30.50;99.90
18898;DHT22;9581;49.484;8.556;2023-07-30T11:08:48;28.90;99.90
18898;DHT22;9581;49.484;8.556;2023-07-30T11:11:15;27.90;99.90
18898;DHT22;9581;49.484;8.556;2023-07-30T11:13:43;28.70;99.90
18898;DHT22;9581;49.484;8.556;2023-07-30T11:16:12;27.80;99.90
18898;DHT22;9581;49.484;8.556;2023-07-30T11:18:40;26.80;99.90
18898;DHT22;9581;49.484;8.556;2023-07-30T11:21:10;26.40;99.90
18898;DHT22;9581;49.484;8.556;2023-07-30T11:23:38;26.20;99.90
18898;DHT22;9581;49.484;8.556;2023-07-30T11:26:07;26.30;99.90
18898;DHT22;9581;49.484;8.556;2023-07-30T11:28:35;25.50;99.90
18898;DHT22;9581;49.484;8.556;2023-07-30T11:31:03;25.30;99.90
18898;DHT22;9581;49.484;8.556;2023-07-30T11:33:31;25.00;99.90
18898;DHT22;9581;49.484;8.556;2023-07-30T11:36:00;24.80;99.90
18898;DHT22;9581;49.484;8.556;2023-07-30T11:38:30;24.80;99.90
18898;DHT22;9581;49.484;8.556;2023-07-30T11:40:57;24.40;99.90
18898;DHT22;9581;49.484;8.556;2023-07-30T11:43:24;25.40;99.90
18898;DHT22;9581;49.484;8.556;2023-07-30T11:46:06;27.30;99.90
18898;DHT22;9581;49.484;8.556;2023-07-30T11:48:34;30.50;99.90
18898;DHT22;9581;49.484;8.556;2023-07-30T11:51:01;31.40;97.50
18898;DHT22;9581;49.484;8.556;2023-07-30T11:53:47;29.30;99.40
18898;DHT22;9581;49.484;8.556;2023-07-30T11:56:19;27.80;99.60
18898;DHT22;9581;49.484;8.556;2023-07-30T11:58:49;27.70;99.40
18898;DHT22;9581;49.484;8.556;2023-07-30T12:01:17;27.10;99.90
18898;DHT22;9581;49.484;8.556;2023-07-30T12:03:44;26.60;99.60
18898;DHT22;9581;49.484;8.556;2023-07-30T12:06:11;26.10;99.90
18898;DHT22;9581;49.484;8.556;2023-07-30T12:08:38;25.70;99.90
18898;DHT22;9581;49.484;8.556;2023-07-30T12:11:07;25.50;99.90
18898;DHT22;9581;49.484;8.556;2023-07-30T12:13:42;27.00;99.90
18898;DHT22;9581;49.484;8.556;2023-07-30T12:16:09;26.20;99.90
18898;DHT22;9581;49.484;8.556;2023-07-30T12:18:37;26.10;98.50
18898;DHT22;9581;49.484;8.556;2023-07-30T12:21:05;25.80;98.40
18898;DHT22;9581;49.484;8.556;2023-07-30T12:23:33;25.20;99.80
18898;DHT22;9581;49.484;8.556;2023-07-30T12:26:00;24.80;99.90
18898;DHT22;9581;49.484;8.556;2023-07-30T12:28:31;24.40;99.90
18898;DHT22;9581;49.484;8.556;2023-07-30T12:30:58;24.20;99.90
18898;DHT22;9581;49.484;8.556;2023-07-30T12:33:24;24.60;99.90
18898;DHT22;9581;49.484;8.556;2023-07-30T12:35:51;26.30;99.90
18898;DHT22;9581;49.484;8.556;2023-07-30T12:38:18;27.00;99.90
18898;DHT22;9581;49.484;8.556;2023-07-30T12:40:45;27.00;99.90
18898;DHT22;9581;49.484;8.556;2023-07-30T12:43:12;26.40;99.90
18898;DHT22;9581;49.484;8.556;2023-07-30T12:45:40;25.60;99.90
18898;DHT22;9581;49.484;8.556;2023-07-30T12:48:07;26.60;99.90
18898;DHT22;9581;49.484;8.556;2023-07-30T12:50:34;26.50;99.90
18898;DHT22;9581;49.484;8.556;2023-07-30T12:53:01;25.90;99.90
18898;DHT22;9581;49.484;8.556;2023-07-30T12:55:28;26.00;99.90
18898;DHT22;9581;49.484;8.556;2023-07-30T12:57:54;26.00;99.90
18898;DHT22;9581;49.484;8.556;2023-07-30T13:00:22;25.40;99.90
18898;DHT22;9581;49.484;8.556;2023-07-30T13:02:50;26.10;99.90
18898;DHT22;9581;49.484;8.556;2023-07-30T13:05:20;26.10;99.90
18898;DHT22;9581;49.484;8.556;2023-07-30T13:07:47;25.70;99.90
18898;DHT22;9581;49.484;8.556;2023-07-30T13:10:14;25.60;99.90
18898;DHT22;9581;49.484;8.556;2023-07-30T13:12:41;26.20;99.90
18898;DHT22;9581;49.484;8.556;2023-07-30T13:15:08;26.50;99.30
18898;DHT22;9581;49.484;8.556;2023-07-30T13:17:36;25.80;98.70
18898;DHT22;9581;49.484;8.556;2023-07-30T13:20:06;25.90;98.40
18898;DHT22;9581;49.484;8.556;2023-07-30T13:22:33;26.40;99.90
18898;DHT22;9581;49.484;8.556;2023-07-30T13:25:00;26.60;98.10
18898;DHT22;9581;49.484;8.556;2023-07-30T13:27:26;26.30;98.50
18898;DHT22;9581;49.484;8.556;2023-07-30T13:29:53;25.90;98.40
18898;DHT22;9581;49.484;8.556;2023-07-30T13:32:20;25.50;99.60
18898;DHT22;9581;49.484;8.556;2023-07-30T13:34:47;25.40;99.70
18898;DHT22;9581;49.484;8.556;2023-07-30T13:37:15;25.40;99.90
18898;DHT22;9581;49.484;8.556;2023-07-30T13:39:42;24.70;99.90
18898;DHT22;9581;49.484;8.556;2023-07-30T13:42:08;24.50;99.80
18898;DHT22;9581;49.484;8.556;2023-07-30T13:44:35;24.30;99.90
18898;DHT22;9581;49.484;8.556;2023-07-30T13:47:02;24.20;99.90
18898;DHT22;9581;49.484;8.556;2023-07-30T13:49:29;24.30;99.90
18898;DHT22;9581;49.484;8.556;2023-07-30T13:51:55;24.40;99.90
18898;DHT22;9581;49.484;8.556;2023-07-30T13:54:23;25.00;99.90
18898;DHT22;9581;49.484;8.556;2023-07-30T13:56:50;24.90;99.50
18898;DHT22;9581;49.484;8.556;2023-07-30T13:59:17;25.30;99.90
18898;DHT22;9581;49.484;8.556;2023-07-30T14:01:44;25.10;99.70
18898;DHT22;9581;49.484;8.556;2023-07-30T14:04:10;25.00;99.90
18898;DHT22;9581;49.484;8.556;2023-07-30T14:06:37;25.30;99.90
18898;DHT22;9581;49.484;8.556;2023-07-30T14:09:04;26.00;99.90
18898;DHT22;9581;49.484;8.556;2023-07-30T14:11:32;25.70;98.80
18898;DHT22;9581;49.484;8.556;2023-07-30T14:13:58;25.60;99.00
18898;DHT22;9581;49.484;8.556;2023-07-30T14:16:25;25.80;98.40
18898;DHT22;9581;49.484;8.556;2023-07-30T14:18:52;26.00;98.10
18898;DHT22;9581;49.484;8.556;2023-07-30T14:21:19;26.00;98.30
18898;DHT22;9581;49.484;8.556;2023-07-30T14:23:46;26.40;98.70
18898;DHT22;9581;49.484;8.556;2023-07-30T14:26:12;27.00;97.50
18898;DHT22;9581;49.484;8.556;2023-07-30T14:28:41;26.50;96.90
18898;DHT22;9581;49.484;8.556;2023-07-30T14:31:08;26.50;96.50
18898;DHT22;9581;49.484;8.556;2023-07-30T14:33:34;26.80;96.20
18898;DHT22;9581;49.484;8.556;2023-07-30T14:36:02;26.70;96.50
18898;DHT22;9581;49.484;8.556;2023-07-30T14:38:29;26.80;95.40
18898;DHT22;9581;49.484;8.556;2023-07-30T14:40:57;27.80;93.80
18898;DHT22;9581;49.484;8.556;2023-07-30T14:43:24;28.00;93.20
18898;DHT22;9581;49.484;8.556;2023-07-30T14:45:52;28.20;93.50
18898;DHT22;9581;49.484;8.556;2023-07-30T14:48:19;27.50;94.40
18898;DHT22;9581;49.484;8.556;2023-07-30T14:50:45;27.00;94.20
18898;DHT22;9581;49.484;8.556;2023-07-30T14:53:12;26.40;94.70
18898;DHT22;9581;49.484;8.556;2023-07-30T14:55:39;26.80;94.10
18898;DHT22;9581;49.484;8.556;2023-07-30T14:58:06;27.10;93.90
18898;DHT22;9581;49.484;8.556;2023-07-30T15:00:34;27.00;93.10
18898;DHT22;9581;49.484;8.556;2023-07-30T15:03:02;26.90;94.50
18898;DHT22;9581;49.484;8.556;2023-07-30T15:05:30;27.50;94.30
18898;DHT22;9581;49.484;8.556;2023-07-30T15:07:58;27.80;93.70
18898;DHT22;9581;49.484;8.556;2023-07-30T15:10:25;28.30;92.00
18898;DHT22;9581;49.484;8.556;2023-07-30T15:12:51;27.70;92.10
18898;DHT22;9581;49.484;8.556;2023-07-30T15:15:18;28.40;91.20
18898;DHT22;9581;49.484;8.556;2023-07-30T15:17:45;29.00;90.40
18898;DHT22;9581;49.484;8.556;2023-07-30T15:20:13;28.80;92.00
18898;DHT22;9581;49.484;8.556;2023-07-30T15:22:40;28.90;90.60
18898;DHT22;9581;49.484;8.556;2023-07-30T15:25:07;28.40;91.40
18898;DHT22;9581;49.484;8.556;2023-07-30T15:27:33;28.60;90.00
18898;DHT22;9581;49.484;8.556;2023-07-30T15:30:00;27.50;90.00
18898;DHT22;9581;49.484;8.556;2023-07-30T15:32:28;27.40;90.00
18898;DHT22;9581;49.484;8.556;2023-07-30T15:34:55;27.80;87.60
18898;DHT22;9581;49.484;8.556;2023-07-30T15:37:23;28.00;88.20
18898;DHT22;9581;49.484;8.556;2023-07-30T15:39:49;28.40;90.20
18898;DHT22;9581;49.484;8.556;2023-07-30T15:42:16;28.90;91.80
18898;DHT22;9581;49.484;8.556;2023-07-30T15:44:43;28.70;87.70
18898;DHT22;9581;49.484;8.556;2023-07-30T15:47:10;29.00;86.20